Time,TemperatureF,DewpointF,PressureIn,WindDirection,WindDirectionDegrees,WindSpeedMPH,WindSpeedGustMPH,Humidity,HourlyPrecipIn,Conditions,Clouds,dailyrainin,SoftwareType,DateUTC
2013-01-19 00:04:00,32.7,20.0,30.48,SW,233,5.0,8.0,61,0.00,,,0.00,weatherlink.com 1.10,2013-01-19 05:04:00,
2013-01-19 00:19:00,32.7,21.0,30.47,WSW,243,3.0,6.0,63,0.00,,,0.00,weatherlink.com 1.10,2013-01-19 05:19:00,
2013-01-19 00:34:00,32.5,21.0,30.47,SW,215,10.0,10.0,64,0.00,,,0.00,weatherlink.com 1.10,2013-01-19 05:34:00,
2013-01-19 00:49:00,32.4,22.0,30.46,WSW,247,4.0,7.0,65,0.00,,,0.00,weatherlink.com 1.10,2013-01-19 05:49:00,
2013-01-19 01:04:00,32.4,22.0,30.45,SW,225,6.0,7.0,66,0.00,,,0.00,weatherlink.com 1.10,2013-01-19 06:04:00,
2013-01-19 01:19:00,32.5,23.0,30.44,SW,220,2.0,10.0,68,0.00,,,0.00,weatherlink.com 1.10,2013-01-19 06:19:00,
2013-01-19 01:34:00,32.5,23.0,30.45,SW,235,3.0,7.0,68,0.00,,,0.00,weatherlink.com 1.10,2013-01-19 06:34:00,
2013-01-19 01:49:00,32.5,24.0,30.45,SW,235,2.0,6.0,70,0.00,,,0.00,weatherlink.com 1.10,2013-01-19 06:49:00,
2013-01-19 02:04:00,32.7,24.0,30.45,WSW,243,3.0,7.0,71,0.00,,,0.00,weatherlink.com 1.10,2013-01-19 07:04:00,
2013-01-19 02:19:00,32.8,24.0,30.45,SW,226,3.0,7.0,71,0.00,,,0.00,weatherlink.com 1.10,2013-01-19 07:19:00,
2013-01-19 02:35:00,33.0,25.0,30.44,SW,214,3.0,10.0,71,0.00,,,0.00,weatherlink.com 1.10,2013-01-19 07:35:00,
2013-01-19 02:49:00,33.3,25.0,30.44,SW,217,8.0,10.0,71,0.00,,,0.00,weatherlink.com 1.10,2013-01-19 07:49:00,
2013-01-19 03:05:00,33.7,25.0,30.44,West,273,4.0,9.0,71,0.00,,,0.00,weatherlink.com 1.10,2013-01-19 08:05:00,
2013-01-19 03:20:00,33.7,25.0,30.43,West,277,5.0,8.0,71,0.00,,,0.00,weatherlink.com 1.10,2013-01-19 08:20:00,
2013-01-19 03:35:00,33.7,26.0,30.43,WSW,250,8.0,9.0,72,0.00,,,0.00,weatherlink.com 1.10,2013-01-19 08:35:00,
2013-01-19 03:50:00,33.7,26.0,30.43,West,277,5.0,8.0,73,0.00,,,0.00,weatherlink.com 1.10,2013-01-19 08:50:00,
2013-01-19 04:05:00,33.6,26.0,30.42,WSW,244,3.0,9.0,73,0.00,,,0.00,weatherlink.com 1.10,2013-01-19 09:05:00,
2013-01-19 04:20:00,33.6,26.0,30.42,West,262,7.0,10.0,73,0.00,,,0.00,weatherlink.com 1.10,2013-01-19 09:20:00,
2013-01-19 04:35:00,33.7,26.0,30.41,SW,229,7.0,10.0,72,0.00,,,0.00,weatherlink.com 1.10,2013-01-19 09:35:00,
2013-01-19 04:50:00,33.8,26.0,30.41,WSW,239,6.0,13.0,72,0.00,,,0.00,weatherlink.com 1.10,2013-01-19 09:50:00,
2013-01-19 05:05:00,34.0,26.0,30.41,West,262,4.0,10.0,71,0.00,,,0.00,weatherlink.com 1.10,2013-01-19 10:05:00,
2013-01-19 05:20:00,34.1,26.0,30.41,WSW,249,5.0,12.0,71,0.00,,,0.00,weatherlink.com 1.10,2013-01-19 10:20:00,
2013-01-19 05:35:00,34.3,26.0,30.41,SW,227,4.0,11.0,71,0.00,,,0.00,weatherlink.com 1.10,2013-01-19 10:35:00,
2013-01-19 05:50:00,34.4,26.0,30.41,WSW,245,9.0,11.0,71,0.00,,,0.00,weatherlink.com 1.10,2013-01-19 10:50:00,
2013-01-19 06:05:00,34.4,26.0,30.41,West,277,3.0,10.0,70,0.00,,,0.00,weatherlink.com 1.10,2013-01-19 11:05:00,
2013-01-19 08:05:00,35.7,25.0,30.39,WNW,283,5.0,18.0,66,0.00,,,0.00,weatherlink.com 1.10,2013-01-19 13:05:00,
2013-01-19 08:20:00,35.9,25.0,30.39,WSW,250,10.0,13.0,66,0.00,,,0.00,weatherlink.com 1.10,2013-01-19 13:20:00,
2013-01-19 08:35:00,36.1,26.0,30.40,West,263,3.0,12.0,66,0.00,,,0.00,weatherlink.com 1.10,2013-01-19 13:35:00,
2013-01-19 08:50:00,36.4,26.0,30.40,WSW,239,11.0,14.0,66,0.00,,,0.00,weatherlink.com 1.10,2013-01-19 13:50:00,
2013-01-19 09:05:00,37.0,26.0,30.39,West,259,11.0,14.0,65,0.00,,,0.00,weatherlink.com 1.10,2013-01-19 14:05:00,
2013-01-19 09:20:00,37.7,26.0,30.39,WSW,241,5.0,14.0,63,0.00,,,0.00,weatherlink.com 1.10,2013-01-19 14:20:00,
2013-01-19 09:36:00,38.5,26.0,30.39,WSW,253,10.0,13.0,61,0.00,,,0.00,weatherlink.com 1.10,2013-01-19 14:36:00,
2013-01-19 09:51:00,39.3,27.0,30.38,West,274,6.0,16.0,61,0.00,,,0.00,weatherlink.com 1.10,2013-01-19 14:51:00,
2013-01-19 10:06:00,40.1,27.0,30.38,West,264,7.0,14.0,59,0.00,,,0.00,weatherlink.com 1.10,2013-01-19 15:06:00,
2013-01-19 10:21:00,40.9,27.0,30.37,SW,232,4.0,14.0,58,0.00,,,0.00,weatherlink.com 1.10,2013-01-19 15:21:00,
2013-01-19 10:36:00,41.7,27.0,30.36,WSW,247,10.0,20.0,57,0.00,,,0.00,weatherlink.com 1.10,2013-01-19 15:36:00,
2013-01-19 10:51:00,42.5,27.0,30.35,West,260,8.0,18.0,55,0.00,,,0.00,weatherlink.com 1.10,2013-01-19 15:51:00,
2013-01-19 11:21:00,44.5,28.0,30.32,WSW,248,6.0,16.0,53,0.00,,,0.00,weatherlink.com 1.10,2013-01-19 16:21:00,
2013-01-19 11:36:00,45.3,27.0,30.30,West,276,6.0,12.0,50,0.00,,,0.00,weatherlink.com 1.10,2013-01-19 16:36:00,
2013-01-19 12:06:00,47.4,28.0,30.27,WSW,250,3.0,14.0,48,0.00,,,0.00,weatherlink.com 1.10,2013-01-19 17:06:00,
2013-01-19 12:37:00,49.0,28.0,30.24,SW,232,8.0,14.0,44,0.00,,,0.00,weatherlink.com 1.10,2013-01-19 17:37:00,
2013-01-19 12:51:00,49.7,28.0,30.23,SSW,210,6.0,13.0,44,0.00,,,0.00,weatherlink.com 1.10,2013-01-19 17:51:00,
2013-01-19 13:07:00,50.5,28.0,30.23,West,265,4.0,14.0,42,0.00,,,0.00,weatherlink.com 1.10,2013-01-19 18:07:00,
2013-01-19 13:22:00,51.4,29.0,30.22,South,190,5.0,13.0,42,0.00,,,0.00,weatherlink.com 1.10,2013-01-19 18:22:00,
2013-01-19 13:37:00,52.0,28.0,30.21,WNW,287,9.0,13.0,40,0.00,,,0.00,weatherlink.com 1.10,2013-01-19 18:37:00,
2013-01-19 14:22:00,52.9,31.0,30.19,SSW,204,4.0,8.0,43,0.00,,,0.00,weatherlink.com 1.10,2013-01-19 19:22:00,
2013-01-19 14:37:00,53.2,30.0,30.18,WSW,238,10.0,11.0,41,0.00,,,0.00,weatherlink.com 1.10,2013-01-19 19:37:00,
2013-01-19 15:37:00,54.5,29.0,30.15,SW,230,8.0,12.0,38,0.00,,,0.00,weatherlink.com 1.10,2013-01-19 20:37:00,
2013-01-19 15:52:00,54.3,29.0,30.14,SW,219,11.0,12.0,38,0.00,,,0.00,weatherlink.com 1.10,2013-01-19 20:52:00,
2013-01-19 16:22:00,54.5,28.0,30.13,SW,232,4.0,13.0,37,0.00,,,0.00,weatherlink.com 1.10,2013-01-19 21:22:00,
2013-01-19 17:22:00,50.8,28.0,30.12,WSW,241,7.0,10.0,41,0.00,,,0.00,weatherlink.com 1.10,2013-01-19 22:22:00,
2013-01-19 17:37:00,50.1,29.0,30.12,WSW,240,6.0,13.0,44,0.00,,,0.00,weatherlink.com 1.10,2013-01-19 22:37:00,
2013-01-19 17:52:00,49.5,29.0,30.12,SW,229,8.0,11.0,45,0.00,,,0.00,weatherlink.com 1.10,2013-01-19 22:52:00,
2013-01-19 18:22:00,48.9,29.0,30.12,SW,229,9.0,10.0,47,0.00,,,0.00,weatherlink.com 1.10,2013-01-19 23:22:00,
2013-01-19 18:37:00,48.6,29.0,30.12,SW,232,7.0,9.0,47,0.00,,,0.00,weatherlink.com 1.10,2013-01-19 23:37:00,
2013-01-19 18:52:00,48.3,29.0,30.12,SSW,201,5.0,12.0,48,0.00,,,0.00,weatherlink.com 1.10,2013-01-19 23:52:00,
2013-01-19 19:07:00,48.1,30.0,30.12,WSW,257,5.0,14.0,50,0.00,,,0.00,weatherlink.com 1.10,2013-01-20 00:07:00,
2013-01-19 19:22:00,47.9,30.0,30.12,WSW,237,13.0,15.0,51,0.00,,,0.00,weatherlink.com 1.10,2013-01-20 00:22:00,
2013-01-19 19:52:00,47.8,30.0,30.11,WSW,241,9.0,16.0,50,0.00,,,0.00,weatherlink.com 1.10,2013-01-20 00:52:00,
2013-01-19 20:07:00,47.4,30.0,30.11,WSW,253,4.0,13.0,52,0.00,,,0.00,weatherlink.com 1.10,2013-01-20 01:07:00,
2013-01-19 20:22:00,47.1,31.0,30.10,SSW,207,5.0,15.0,53,0.00,,,0.00,weatherlink.com 1.10,2013-01-20 01:22:00,
2013-01-19 20:37:00,47.1,31.0,30.09,WSW,243,7.0,15.0,53,0.00,,,0.00,weatherlink.com 1.10,2013-01-20 01:37:00,
2013-01-19 20:52:00,46.9,30.0,30.09,WNW,295,6.0,15.0,53,0.00,,,0.00,weatherlink.com 1.10,2013-01-20 01:52:00,
2013-01-19 21:08:00,46.8,30.0,30.09,SW,229,6.0,15.0,53,0.00,,,0.00,weatherlink.com 1.10,2013-01-20 02:08:00,
2013-01-19 21:23:00,46.8,30.0,30.08,West,262,5.0,15.0,53,0.00,,,0.00,weatherlink.com 1.10,2013-01-20 02:23:00,
2013-01-19 21:38:00,46.7,30.0,30.08,WNW,285,6.0,15.0,53,0.00,,,0.00,weatherlink.com 1.10,2013-01-20 02:38:00,
2013-01-19 21:53:00,46.3,30.0,30.07,WSW,243,7.0,13.0,54,0.00,,,0.00,weatherlink.com 1.10,2013-01-20 02:53:00,
2013-01-19 22:08:00,46.2,30.0,30.07,West,263,8.0,12.0,54,0.00,,,0.00,weatherlink.com 1.10,2013-01-20 03:08:00,
2013-01-19 22:23:00,46.0,30.0,30.07,West,276,7.0,15.0,53,0.00,,,0.00,weatherlink.com 1.10,2013-01-20 03:23:00,
2013-01-19 22:38:00,46.0,30.0,30.06,West,276,13.0,18.0,53,0.00,,,0.00,weatherlink.com 1.10,2013-01-20 03:38:00,
2013-01-19 22:53:00,45.9,30.0,30.05,WSW,252,11.0,15.0,54,0.00,,,0.00,weatherlink.com 1.10,2013-01-20 03:53:00,
2013-01-19 23:08:00,45.5,30.0,30.04,West,270,7.0,12.0,54,0.00,,,0.00,weatherlink.com 1.10,2013-01-20 04:08:00,
2013-01-19 23:23:00,45.3,29.0,30.03,WSW,255,7.0,12.0,54,0.00,,,0.00,weatherlink.com 1.10,2013-01-20 04:23:00,
2013-01-19 23:38:00,44.9,29.0,30.02,WSW,243,11.0,19.0,55,0.00,,,0.00,weatherlink.com 1.10,2013-01-20 04:38:00,
2013-01-19 23:53:00,45.1,30.0,30.01,SW,229,10.0,15.0,55,0.00,,,0.00,weatherlink.com 1.10,2013-01-20 04:53:00,